createdAt,value
2018-07-14T00:04:07.953Z,20.70
2018-07-14T00:06:37.322Z,20.70
2018-07-14T00:09:07.348Z,20.80
2018-07-14T00:11:36.637Z,20.80
2018-07-14T00:14:05.796Z,20.80
2018-07-14T00:16:34.990Z,20.80
2018-07-14T00:19:04.291Z,20.90
2018-07-14T00:21:33.593Z,20.90
2018-07-14T00:24:02.916Z,20.90
2018-07-14T00:26:32.133Z,20.90
2018-07-14T00:29:01.450Z,20.90
2018-07-14T00:31:30.542Z,20.90
2018-07-14T00:33:59.910Z,20.80
2018-07-14T00:36:29.154Z,20.80
2018-07-14T00:38:58.454Z,20.90
2018-07-14T00:41:27.519Z,20.90
2018-07-14T00:43:56.577Z,20.90
2018-07-14T00:46:25.634Z,20.90
2018-07-14T00:48:54.689Z,20.90
2018-07-14T00:51:23.882Z,20.90
2018-07-14T00:53:53.040Z,20.90
2018-07-14T00:56:22.215Z,20.80
2018-07-14T00:58:51.190Z,20.70
2018-07-14T01:03:48.962Z,20.70
2018-07-14T01:06:18.606Z,20.60
2018-07-14T01:08:47.801Z,20.60
2018-07-14T01:11:16.902Z,20.60
2018-07-14T01:13:46.023Z,20.50
2018-07-14T01:16:15.165Z,20.50
2018-07-14T01:18:44.292Z,20.50
2018-07-14T01:21:13.369Z,20.50
2018-07-14T01:23:42.444Z,20.50
2018-07-14T01:26:11.448Z,20.40
2018-07-14T01:28:40.675Z,20.40
2018-07-14T01:31:09.967Z,20.40
2018-07-14T01:33:39.149Z,20.40
2018-07-14T01:36:08.297Z,20.40
2018-07-14T01:38:37.410Z,20.30
2018-07-14T01:41:06.627Z,20.30
2018-07-14T01:43:35.875Z,20.30
2018-07-14T01:46:05.038Z,20.20
2018-07-14T01:48:34.261Z,20.20
2018-07-14T01:51:03.332Z,20.20
2018-07-14T01:53:32.355Z,20.20
2018-07-14T01:56:01.490Z,20.20
2018-07-14T01:58:31.046Z,20.20
2018-07-14T02:01:00.152Z,20.20
2018-07-14T02:03:29.173Z,20.10
2018-07-14T02:05:58.215Z,20.10
2018-07-14T02:08:27.432Z,20.10
2018-07-14T02:10:56.618Z,20.00
2018-07-14T02:13:25.849Z,20.10
2018-07-14T02:15:54.861Z,20.10
2018-07-14T02:18:23.878Z,20.00
2018-07-14T02:20:53.116Z,20.10
2018-07-14T02:23:22.561Z,20.00
2018-07-14T02:25:51.924Z,19.90
2018-07-14T02:28:21.021Z,19.90
2018-07-14T02:30:50.118Z,19.90
2018-07-14T02:33:19.197Z,19.90
2018-07-14T02:35:48.249Z,19.90
2018-07-14T02:38:17.359Z,19.90
2018-07-14T02:40:46.426Z,19.90
2018-07-14T02:43:15.511Z,19.90
2018-07-14T02:45:44.955Z,19.90
2018-07-14T02:48:14.102Z,19.90
2018-07-14T02:50:43.218Z,19.90
2018-07-14T02:53:12.246Z,19.80
2018-07-14T02:55:41.501Z,19.80
2018-07-14T02:58:10.746Z,19.80
2018-07-14T03:00:40.047Z,19.70
2018-07-14T03:03:09.271Z,19.70
2018-07-14T03:05:38.397Z,19.60
2018-07-14T03:08:07.538Z,19.60
2018-07-14T03:10:36.763Z,19.60
2018-07-14T03:13:06.240Z,19.50
2018-07-14T03:15:35.431Z,19.50
2018-07-14T03:18:04.725Z,19.50
2018-07-14T03:20:33.841Z,19.50
2018-07-14T03:23:03.194Z,19.50
2018-07-14T03:25:32.463Z,19.50
2018-07-14T03:28:01.634Z,19.60
2018-07-14T03:30:30.654Z,19.60
2018-07-14T03:32:59.675Z,19.60
2018-07-14T03:35:28.842Z,19.60
2018-07-14T03:37:57.876Z,19.60
2018-07-14T03:40:26.951Z,19.60
2018-07-14T03:42:56.193Z,19.70
2018-07-14T03:45:25.529Z,19.70
2018-07-14T03:47:54.702Z,19.70
2018-07-14T03:50:23.773Z,19.70
2018-07-14T03:52:53.680Z,19.70
2018-07-14T03:55:23.073Z,19.70
2018-07-14T03:57:52.129Z,19.70
2018-07-14T04:00:21.379Z,19.70
2018-07-14T04:02:53.607Z,19.70
2018-07-14T04:05:22.905Z,19.70
2018-07-14T04:07:59.370Z,19.80
2018-07-14T04:10:28.827Z,19.80
2018-07-14T04:12:58.057Z,19.80
2018-07-14T04:15:27.304Z,19.90
2018-07-14T04:18:05.536Z,19.90
2018-07-14T04:20:36.715Z,19.90
2018-07-14T04:23:05.801Z,19.90
2018-07-14T04:25:34.947Z,19.90
2018-07-14T04:28:04.164Z,19.90
2018-07-14T04:30:33.468Z,20.00
2018-07-14T04:33:02.479Z,20.00
2018-07-14T04:35:31.707Z,20.00
2018-07-14T04:38:00.951Z,20.10
2018-07-14T04:40:30.230Z,20.10
2018-07-14T04:43:00.105Z,20.10
2018-07-14T04:45:29.460Z,20.10
2018-07-14T04:47:58.737Z,20.20
2018-07-14T04:50:28.005Z,20.20
2018-07-14T04:52:57.437Z,20.30
2018-07-14T04:55:26.627Z,20.20
2018-07-14T04:57:55.799Z,20.40
2018-07-14T05:00:25.279Z,20.40
2018-07-14T05:02:55.544Z,20.40
2018-07-14T05:05:24.715Z,20.40
2018-07-14T05:10:24.776Z,20.50
2018-07-14T05:12:54.117Z,20.60
2018-07-14T05:15:23.591Z,20.70
2018-07-14T05:17:53.742Z,20.80
2018-07-14T05:20:23.054Z,20.80
2018-07-14T05:22:52.400Z,20.80
2018-07-14T05:25:21.546Z,20.80
2018-07-14T05:27:50.698Z,20.80
2018-07-14T05:30:19.901Z,20.90
2018-07-14T05:32:49.179Z,20.90
2018-07-14T05:35:18.410Z,20.90
2018-07-14T05:37:48.481Z,21.00
2018-07-14T05:40:17.549Z,21.10
2018-07-14T05:42:47.442Z,21.10
2018-07-14T05:45:16.693Z,21.20
2018-07-14T05:47:45.950Z,21.20
2018-07-14T05:50:15.321Z,21.30
2018-07-14T05:52:46.833Z,21.30
2018-07-14T05:55:17.928Z,21.30
2018-07-14T05:57:47.327Z,21.40
2018-07-14T06:00:16.565Z,21.40
2018-07-14T06:02:46.079Z,21.40
2018-07-14T06:05:15.478Z,21.50
2018-07-14T06:07:44.589Z,21.60
2018-07-14T06:10:13.986Z,21.60
2018-07-14T06:15:12.960Z,21.70
2018-07-14T06:17:42.263Z,21.80
2018-07-14T06:20:11.757Z,21.90
2018-07-14T06:22:41.094Z,21.90
2018-07-14T06:25:10.203Z,22.00
2018-07-14T06:27:39.443Z,22.10
2018-07-14T06:30:08.956Z,22.20
2018-07-14T06:32:38.331Z,22.40
2018-07-14T06:35:07.385Z,22.50
2018-07-14T06:37:36.482Z,22.60
2018-07-14T06:40:06.022Z,22.70
2018-07-14T06:42:35.846Z,22.70
2018-07-14T06:45:05.132Z,22.80
2018-07-14T06:47:34.418Z,22.90
2018-07-14T06:50:03.930Z,23.10
2018-07-14T06:52:33.210Z,23.20
2018-07-14T06:55:02.390Z,23.40
2018-07-14T06:57:31.659Z,23.60
2018-07-14T07:00:00.826Z,23.70
2018-07-14T07:02:30.081Z,24.00
2018-07-14T07:04:59.322Z,24.20
2018-07-14T07:07:28.448Z,24.50
2018-07-14T07:09:57.685Z,24.80
2018-07-14T07:12:27.081Z,25.00
2018-07-14T07:14:56.353Z,25.30
2018-07-14T07:17:25.640Z,25.60
2018-07-14T07:19:54.945Z,26.10
2018-07-14T07:22:24.201Z,26.70
2018-07-14T07:24:53.498Z,27.30
2018-07-14T07:27:22.654Z,28.00
2018-07-14T07:29:51.738Z,28.50
2018-07-14T07:32:20.914Z,29.20
2018-07-14T07:34:49.935Z,29.70
2018-07-14T07:37:19.004Z,30.30
2018-07-14T07:39:48.485Z,30.90
2018-07-14T07:42:17.651Z,31.20
2018-07-14T07:44:46.697Z,31.60
2018-07-14T07:47:15.983Z,31.80
2018-07-14T07:49:45.227Z,32.20
2018-07-14T07:52:14.352Z,32.60
2018-07-14T07:54:43.685Z,33.20
2018-07-14T07:57:13.041Z,33.40
2018-07-14T07:59:45.014Z,33.90
2018-07-14T08:02:15.813Z,33.90
2018-07-14T08:04:45.467Z,34.00
2018-07-14T08:07:14.766Z,34.30
2018-07-14T08:09:44.838Z,34.40
2018-07-14T08:12:17.162Z,34.40
2018-07-14T08:14:48.980Z,34.30
2018-07-14T08:17:20.740Z,34.40
2018-07-14T08:19:50.620Z,34.60
2018-07-14T08:22:20.026Z,35.30
2018-07-14T08:24:49.286Z,35.60
2018-07-14T08:27:18.442Z,36.00
2018-07-14T08:29:47.717Z,36.30
2018-07-14T08:32:16.904Z,36.60
2018-07-14T08:34:46.076Z,36.40
2018-07-14T08:37:15.142Z,36.30
2018-07-14T08:39:44.358Z,36.60
2018-07-14T08:42:19.092Z,36.90
2018-07-14T08:44:50.646Z,37.20
2018-07-14T08:47:19.793Z,37.60
2018-07-14T08:50:14.471Z,37.80
2018-07-14T08:52:44.245Z,38.20
2018-07-14T08:55:14.411Z,38.20
2018-07-14T08:57:44.732Z,37.60
2018-07-14T09:00:15.033Z,37.00
2018-07-14T09:02:53.630Z,36.40
2018-07-14T09:05:26.745Z,36.50
2018-07-14T09:07:59.779Z,36.50
2018-07-14T09:10:29.335Z,36.60
2018-07-14T09:13:02.391Z,36.80
2018-07-14T09:15:34.122Z,36.70
2018-07-14T09:18:03.528Z,36.40
2018-07-14T09:20:33.348Z,36.10
2018-07-14T09:23:05.163Z,36.00
2018-07-14T09:25:37.703Z,36.20
2018-07-14T09:28:07.517Z,36.30
2018-07-14T09:30:37.597Z,36.10
2018-07-14T09:33:07.808Z,36.20
2018-07-14T09:35:45.568Z,36.40
2018-07-14T10:15:31.429Z,36.50
2018-07-14T10:18:27.047Z,36.50
2018-07-14T10:21:34.758Z,37.30
2018-07-14T10:24:29.885Z,37.30
2018-07-14T10:32:56.952Z,37.50
2018-07-14T10:35:26.571Z,36.30
2018-07-14T10:37:56.278Z,36.40
2018-07-14T10:40:25.555Z,36.30
2018-07-14T10:42:54.744Z,36.20
2018-07-14T10:45:23.949Z,36.30
2018-07-14T10:47:53.345Z,36.20
2018-07-14T10:50:22.691Z,36.40
2018-07-14T10:52:51.945Z,36.60
2018-07-14T10:55:21.091Z,36.70
2018-07-14T10:57:50.226Z,36.80
2018-07-14T11:00:33.886Z,36.60
2018-07-14T11:12:33.611Z,35.80
2018-07-14T11:15:02.984Z,36.00
2018-07-14T11:17:32.431Z,36.00
2018-07-14T11:20:01.999Z,36.40
2018-07-14T11:22:31.404Z,36.70
2018-07-14T11:25:00.880Z,36.90
2018-07-14T11:27:30.309Z,37.30
2018-07-14T11:30:00.250Z,37.60
2018-07-14T11:32:31.688Z,38.00
2018-07-14T11:35:01.272Z,38.40
2018-07-14T11:37:31.827Z,38.90
2018-07-14T11:40:02.979Z,38.60
2018-07-14T11:42:32.639Z,38.70
2018-07-14T11:45:02.798Z,38.60
2018-07-14T11:47:33.059Z,38.50
2018-07-14T11:50:02.524Z,38.50
2018-07-14T11:52:32.139Z,38.20
2018-07-14T11:55:05.674Z,37.80
2018-07-14T11:57:35.511Z,37.30
2018-07-14T12:00:04.777Z,36.70
2018-07-14T12:02:34.069Z,35.70
2018-07-14T12:05:03.416Z,34.90
2018-07-14T12:07:32.738Z,34.30
2018-07-14T12:10:01.979Z,33.50
2018-07-14T12:12:31.245Z,33.00
2018-07-14T12:15:00.593Z,32.30
2018-07-14T12:17:29.773Z,31.80
2018-07-14T12:19:59.318Z,31.60
2018-07-14T12:22:28.616Z,31.40
2018-07-14T12:24:57.995Z,31.00
2018-07-14T12:27:27.277Z,30.70
2018-07-14T12:29:56.620Z,30.60
2018-07-14T12:32:26.120Z,30.60
2018-07-14T12:34:56.573Z,30.50
2018-07-14T12:37:25.922Z,30.80
2018-07-14T12:39:55.109Z,31.10
2018-07-14T12:42:24.446Z,31.30
2018-07-14T12:44:53.617Z,31.50
2018-07-14T12:47:23.779Z,31.80
2018-07-14T12:49:53.025Z,32.00
2018-07-14T12:52:22.280Z,32.20
2018-07-14T12:54:51.454Z,32.00
2018-07-14T12:57:20.634Z,31.70
2018-07-14T12:59:50.027Z,31.60
2018-07-14T13:02:19.198Z,31.30
2018-07-14T13:04:48.399Z,31.20
2018-07-14T13:07:17.627Z,31.30
2018-07-14T13:09:47.052Z,31.30
2018-07-14T13:12:16.165Z,31.40
2018-07-14T13:14:45.446Z,31.60
2018-07-14T13:17:14.709Z,31.70
2018-07-14T13:19:43.807Z,31.70
2018-07-14T13:22:13.853Z,31.70
2018-07-14T13:24:43.196Z,31.70
2018-07-14T13:27:12.563Z,31.50
2018-07-14T13:29:41.904Z,31.60
2018-07-14T13:32:11.121Z,31.60
2018-07-14T13:34:40.405Z,31.60
2018-07-14T13:37:09.750Z,31.70
2018-07-14T13:39:38.997Z,31.80
2018-07-14T13:42:08.182Z,31.80
2018-07-14T13:44:37.489Z,31.90
2018-07-14T13:47:07.063Z,31.90
2018-07-14T13:49:36.297Z,31.80
2018-07-14T13:52:05.560Z,31.80
2018-07-14T13:54:34.961Z,31.60
2018-07-14T13:57:04.259Z,31.50
2018-07-14T13:59:33.545Z,31.40
2018-07-14T14:02:02.819Z,31.10
2018-07-14T14:04:32.119Z,30.90
2018-07-14T14:07:01.353Z,30.70
2018-07-14T14:09:30.605Z,30.50
2018-07-14T14:11:59.710Z,30.50
2018-07-14T14:14:28.879Z,30.50
2018-07-14T14:16:58.308Z,30.40
2018-07-14T14:19:27.625Z,30.50
2018-07-14T14:21:56.874Z,30.50
2018-07-14T14:24:26.124Z,30.40
2018-07-14T14:26:55.355Z,30.30
2018-07-14T14:29:24.605Z,30.10
2018-07-14T14:31:54.111Z,29.90
2018-07-14T14:34:23.333Z,29.70
2018-07-14T14:36:52.561Z,29.50
2018-07-14T14:39:21.919Z,29.30
2018-07-14T14:41:51.149Z,29.10
2018-07-14T14:44:20.498Z,28.80
2018-07-14T14:46:49.773Z,28.50
2018-07-14T14:49:19.085Z,28.30
2018-07-14T14:51:48.667Z,28.00
2018-07-14T14:54:18.056Z,27.90
2018-07-14T14:56:47.380Z,27.90
2018-07-14T14:59:16.854Z,27.90
2018-07-14T15:01:46.089Z,27.90
2018-07-14T15:04:15.391Z,28.00
2018-07-14T15:06:44.725Z,28.10
2018-07-14T15:09:14.051Z,28.20
2018-07-14T15:11:43.328Z,28.20
2018-07-14T15:14:12.597Z,28.20
2018-07-14T15:16:41.905Z,28.10
2018-07-14T15:19:11.152Z,28.00
2018-07-14T15:21:40.443Z,27.90
2018-07-14T15:24:09.689Z,27.60
2018-07-14T15:26:38.879Z,27.40
2018-07-14T15:29:08.497Z,27.30
2018-07-14T15:31:37.771Z,27.20
2018-07-14T15:34:07.434Z,27.20
2018-07-14T15:36:36.751Z,27.10
2018-07-14T15:39:07.411Z,27.30
2018-07-14T15:41:38.566Z,27.40
2018-07-14T15:44:12.713Z,27.40
2018-07-14T15:46:45.781Z,27.50
2018-07-14T15:49:15.125Z,27.50
2018-07-14T15:51:44.997Z,27.40
2018-07-14T15:54:18.197Z,27.30
2018-07-14T15:59:32.517Z,27.00
2018-07-14T16:02:01.767Z,26.80
2018-07-14T16:04:32.073Z,26.80
2018-07-14T16:07:01.378Z,26.70
2018-07-14T16:09:30.550Z,26.60
2018-07-14T16:11:59.778Z,26.50
2018-07-14T16:14:28.886Z,26.50
2018-07-14T16:16:58.164Z,26.50
2018-07-14T16:19:27.415Z,26.50
2018-07-14T16:21:57.275Z,26.50
2018-07-14T16:24:26.609Z,26.50
2018-07-14T16:26:55.918Z,26.40
2018-07-14T16:29:25.370Z,26.30
2018-07-14T16:31:54.501Z,26.20
2018-07-14T16:34:23.707Z,26.20
2018-07-14T16:36:53.142Z,26.10
2018-07-14T16:39:22.364Z,26.10
2018-07-14T16:41:51.664Z,26.20
2018-07-14T16:44:21.050Z,26.20
2018-07-14T16:46:50.217Z,26.20
2018-07-14T16:49:19.508Z,26.20
2018-07-14T16:51:48.677Z,26.20
2018-07-14T16:54:18.005Z,26.20
2018-07-14T16:56:47.346Z,26.10
2018-07-14T16:59:16.740Z,26.20
2018-07-14T17:01:46.108Z,26.20
2018-07-14T17:04:15.474Z,26.10
2018-07-14T17:06:44.743Z,26.10
2018-07-14T17:09:13.904Z,26.10
2018-07-14T17:11:43.146Z,26.00
2018-07-14T17:14:12.846Z,26.00
2018-07-14T17:16:42.627Z,26.00
2018-07-14T17:19:11.943Z,25.90
2018-07-14T17:21:41.233Z,26.00
2018-07-14T17:24:10.528Z,25.90
2018-07-14T17:26:39.750Z,25.80
2018-07-14T17:29:09.062Z,25.80
2018-07-14T17:31:38.318Z,25.80
2018-07-14T17:34:07.460Z,25.70
2018-07-14T17:36:36.837Z,25.60
2018-07-14T17:39:07.837Z,25.60
2018-07-14T17:41:37.069Z,25.60
2018-07-14T17:44:06.362Z,25.50
2018-07-14T17:46:35.457Z,25.50
2018-07-14T17:49:04.739Z,25.40
2018-07-14T17:51:34.047Z,25.30
2018-07-14T17:54:03.919Z,25.30
2018-07-14T17:56:33.189Z,25.20
2018-07-14T17:59:02.577Z,25.10
2018-07-14T18:01:31.781Z,25.10
2018-07-14T18:04:01.000Z,25.00
2018-07-14T18:06:30.162Z,24.90
2018-07-14T18:08:59.422Z,24.80
2018-07-14T18:11:28.650Z,24.70
2018-07-14T18:13:58.050Z,24.60
2018-07-14T18:16:27.382Z,24.50
2018-07-14T18:18:56.665Z,24.50
2018-07-14T18:21:26.101Z,24.40
2018-07-14T18:23:55.837Z,24.30
2018-07-14T18:26:24.961Z,24.30
2018-07-14T18:28:54.740Z,24.20
2018-07-14T18:31:24.022Z,24.20
2018-07-14T18:33:53.311Z,24.10
2018-07-14T18:36:22.564Z,24.00
2018-07-14T18:38:51.861Z,23.90
2018-07-14T18:41:21.097Z,23.80
2018-07-14T18:43:50.364Z,23.80
2018-07-14T18:46:19.649Z,23.70
2018-07-14T18:48:48.930Z,23.70
2018-07-14T18:51:18.172Z,23.70
2018-07-14T18:53:47.494Z,23.70
2018-07-14T18:56:16.814Z,23.70
2018-07-14T18:58:46.173Z,23.60
2018-07-14T19:01:15.570Z,23.60
2018-07-14T19:03:44.838Z,23.50
2018-07-14T19:06:14.142Z,23.50
2018-07-14T19:08:43.470Z,23.40
2018-07-14T19:11:12.774Z,23.40
2018-07-14T19:13:42.003Z,23.40
2018-07-14T19:16:11.321Z,23.30
2018-07-14T19:18:40.643Z,23.30
2018-07-14T19:21:10.069Z,23.20
2018-07-14T19:23:39.570Z,23.10
2018-07-14T19:26:09.134Z,23.00
2018-07-14T19:28:38.229Z,23.10
2018-07-14T19:31:07.530Z,23.00
2018-07-14T19:33:36.810Z,22.90
2018-07-14T19:36:06.048Z,22.90
2018-07-14T19:38:35.193Z,22.90
2018-07-14T19:41:05.537Z,22.90
2018-07-14T19:43:34.837Z,22.80
2018-07-14T19:46:04.095Z,22.80
2018-07-14T19:48:33.437Z,22.80
2018-07-14T19:51:02.836Z,22.80
2018-07-14T19:53:32.260Z,22.80
2018-07-14T19:56:01.642Z,22.70
2018-07-14T19:58:30.863Z,22.70
2018-07-14T20:01:00.087Z,22.60
2018-07-14T20:03:29.338Z,22.60
2018-07-14T20:05:58.559Z,22.60
2018-07-14T20:08:27.885Z,22.50
2018-07-14T20:10:57.219Z,22.50
2018-07-14T20:13:26.389Z,22.40
2018-07-14T20:15:55.559Z,22.40
2018-07-14T20:18:24.826Z,22.30
2018-07-14T20:20:54.059Z,22.30
2018-07-14T20:23:23.295Z,22.30
2018-07-14T20:25:52.599Z,22.20
2018-07-14T20:28:21.836Z,22.20
2018-07-14T20:30:51.285Z,22.10
2018-07-14T20:33:20.500Z,22.10
2018-07-14T20:35:49.563Z,22.10
2018-07-14T20:38:18.788Z,22.10
2018-07-14T20:40:48.032Z,22.10
2018-07-14T20:43:17.449Z,22.10
2018-07-14T20:45:46.729Z,22.00
2018-07-14T20:48:15.830Z,22.00
2018-07-14T20:50:44.901Z,22.10
2018-07-14T20:53:14.190Z,22.10
2018-07-14T20:55:43.994Z,22.00
2018-07-14T20:58:13.341Z,21.90
2018-07-14T21:00:42.501Z,21.90
2018-07-14T21:03:11.873Z,21.90
2018-07-14T21:05:41.033Z,21.90
2018-07-14T21:08:10.138Z,21.80
2018-07-14T21:10:39.375Z,21.80
2018-07-14T21:13:08.589Z,21.70
2018-07-14T21:15:37.896Z,21.70
2018-07-14T21:18:07.586Z,21.70
2018-07-14T21:20:36.932Z,21.60
2018-07-14T21:23:06.229Z,21.60
2018-07-14T21:25:35.543Z,21.60
2018-07-14T21:28:04.801Z,21.60
2018-07-14T21:30:34.134Z,21.60
2018-07-14T21:33:03.553Z,21.60
2018-07-14T21:35:32.710Z,21.60
2018-07-14T21:38:02.034Z,21.60
2018-07-14T21:40:31.246Z,21.60
2018-07-14T21:43:00.497Z,21.70
2018-07-14T21:45:29.762Z,21.70
2018-07-14T21:47:59.111Z,21.70
2018-07-14T21:50:28.445Z,21.80
2018-07-14T21:52:57.645Z,21.90
2018-07-14T21:55:26.825Z,21.90
2018-07-14T21:57:56.130Z,22.00
2018-07-14T22:00:31.051Z,22.00
2018-07-14T22:03:00.629Z,22.00
2018-07-14T22:05:30.547Z,22.00
2018-07-14T22:07:59.851Z,22.00
2018-07-14T22:10:29.129Z,22.10
2018-07-14T22:12:58.335Z,22.10
2018-07-14T22:15:27.354Z,22.10
2018-07-14T22:17:56.748Z,22.10
2018-07-14T22:20:26.301Z,22.10
2018-07-14T22:22:55.549Z,22.10
2018-07-14T22:25:24.970Z,22.10
2018-07-14T22:27:54.242Z,22.00
2018-07-14T22:30:23.449Z,22.00
2018-07-14T22:32:52.755Z,22.00
2018-07-14T22:35:22.046Z,22.00
2018-07-14T22:37:51.366Z,22.00
2018-07-14T22:40:20.497Z,22.00
2018-07-14T22:42:49.738Z,21.90
2018-07-14T22:45:18.967Z,21.90
2018-07-14T22:47:48.272Z,21.90
2018-07-14T22:50:17.627Z,21.90
2018-07-14T22:52:46.915Z,21.90
2018-07-14T22:55:16.354Z,21.90
2018-07-14T22:57:45.674Z,21.80
2018-07-14T23:00:15.026Z,21.90
2018-07-14T23:02:45.046Z,21.80
2018-07-14T23:05:14.198Z,21.90
2018-07-14T23:07:43.618Z,21.90
2018-07-14T23:10:12.910Z,21.90
2018-07-14T23:12:42.144Z,21.90
2018-07-14T23:15:11.468Z,22.00
2018-07-14T23:17:40.666Z,22.00
2018-07-14T23:20:10.030Z,22.00
2018-07-14T23:22:39.179Z,22.10
2018-07-14T23:25:08.378Z,22.10
2018-07-14T23:27:37.607Z,22.10
2018-07-14T23:30:07.215Z,22.10
2018-07-14T23:32:36.653Z,22.10
2018-07-14T23:35:08.881Z,22.10
2018-07-14T23:37:38.094Z,22.10
2018-07-14T23:40:07.515Z,22.00
2018-07-14T23:42:36.889Z,22.00
2018-07-14T23:45:06.234Z,22.00
2018-07-14T23:47:35.636Z,21.90
2018-07-14T23:50:05.091Z,21.90
2018-07-14T23:52:34.580Z,21.90
2018-07-14T23:55:03.890Z,21.80
2018-07-14T23:57:33.086Z,21.80
